Budapest/Lorinc, Hungary
Current Conditions -  °F | °C
As of 11:30 AM on Saturday 25 Oct 2014 (Local Time) from LHBP Reporting Station
Broken Clouds Broken Clouds  
Wind Chill: 50°   Ceiling: 6600
Heat Index: 50°   Visibility: 6mi
Dew Point: 39°   Wind: 6mph
Humidity: 66%   Direction: 60°ENE
Pressure: 30.27"   Gusts: NA
Location:  47.43°N, 19.18°E
Report Text: LHBP 250930Z 06005KT 340V120 9999 FEW022 BKN066 10/04 Q1025 NOSIG
Loading
Personal Weather Stations






























Interactive Weather Map
Tropical Storm Tracking
New forecast layout! Learn more

10-Day Weather Forecast

Advertisements
Track Severe Weather on mobile